Time;durP1;ratioP1;P1;durP2;ratioP2;P2;SDS_P1;SDS_P2;PMS_P1;PMS_P2;Temp;Humidity;BMP_temperature;BMP_pressure;BME280_temperature;BME280_humidity;BME280_pressure;Samples;Min_cycle;Max_cycle;Signal;HPM_P1;HPM_P2
2022/07/08 00:01:02;;;;;;;14.75;4.10;;;16.40;99.90;;;;;;5052172;28;20238;-68
2022/07/08 00:03:28;;;;;;;16.85;3.72;;;16.40;99.90;;;;;;5069864;28;20677;-68
2022/07/08 00:05:54;;;;;;;18.13;4.43;;;16.40;99.90;;;;;;5070833;28;20546;-69
2022/07/08 00:08:19;;;;;;;14.70;4.45;;;16.40;99.90;;;;;;5069985;28;20601;-69
2022/07/08 00:10:45;;;;;;;16.25;3.80;;;16.30;99.90;;;;;;5052164;28;20286;-68
2022/07/08 00:13:11;;;;;;;10.77;4.35;;;16.30;99.90;;;;;;5070098;28;20218;-69
2022/07/08 00:15:36;;;;;;;12.15;4.20;;;16.30;99.90;;;;;;5069849;28;20187;-69
2022/07/08 00:18:02;;;;;;;14.35;4.32;;;16.30;99.90;;;;;;5070671;28;20190;-69
2022/07/08 00:20:28;;;;;;;16.90;4.25;;;16.20;99.90;;;;;;5051978;28;20222;-69
2022/07/08 00:22:53;;;;;;;16.38;3.80;;;16.20;99.90;;;;;;5069981;28;20203;-69
2022/07/08 00:25:19;;;;;;;12.65;3.33;;;16.10;99.90;;;;;;5070228;28;20294;-69
2022/07/08 00:27:44;;;;;;;11.48;4.03;;;16.10;99.90;;;;;;5069897;28;20211;-69
2022/07/08 00:30:12;;;;;;;13.05;3.88;;;16.10;99.90;;;;;;5070257;28;20256;-69
2022/07/08 00:32:38;;;;;;;23.30;4.57;;;16.10;99.90;;;;;;5070060;28;20714;-69
2022/07/08 00:35:04;;;;;;;15.15;4.03;;;16.10;99.90;;;;;;5070165;28;20210;-69
2022/07/08 00:37:30;;;;;;;13.80;3.85;;;16.10;99.90;;;;;;5051599;28;20711;-69
2022/07/08 00:39:55;;;;;;;16.17;4.47;;;16.10;99.90;;;;;;5072224;28;20241;-68
2022/07/08 00:42:22;;;;;;;17.90;3.88;;;16.00;99.90;;;;;;5073949;28;20658;-69
2022/07/08 00:44:47;;;;;;;18.10;5.22;;;16.00;99.90;;;;;;5055504;28;20237;-69
2022/07/08 00:47:13;;;;;;;12.70;3.95;;;15.90;99.90;;;;;;5073354;28;20691;-69
2022/07/08 00:49:40;;;;;;;14.90;4.47;;;15.90;99.90;;;;;;5073129;28;20217;-69
2022/07/08 00:52:06;;;;;;;17.90;4.85;;;15.90;99.90;;;;;;5055511;28;20725;-69
2022/07/08 00:54:32;;;;;;;21.20;4.65;;;15.90;99.90;;;;;;5072736;28;20547;-69
2022/07/08 00:56:58;;;;;;;18.17;6.18;;;15.90;99.90;;;;;;5055731;28;20199;-69
2022/07/08 00:59:26;;;;;;;16.45;4.53;;;15.90;99.90;;;;;;5072696;28;20211;-68
2022/07/08 01:01:52;;;;;;;20.40;5.15;;;15.90;99.90;;;;;;5073227;28;20806;-69
2022/07/08 01:04:18;;;;;;;16.45;4.47;;;15.90;99.90;;;;;;5073279;28;20234;-69
2022/07/08 01:06:43;;;;;;;17.73;4.65;;;16.00;99.90;;;;;;5073198;28;20235;-70
2022/07/08 01:09:10;;;;;;;17.70;4.68;;;16.00;99.90;;;;;;5073201;28;20185;-69
2022/07/08 01:11:35;;;;;;;15.13;4.30;;;16.00;99.90;;;;;;5055340;28;20646;-69
2022/07/08 01:14:01;;;;;;;16.60;4.75;;;15.90;99.90;;;;;;5073003;28;20223;-69
2022/07/08 01:16:27;;;;;;;16.67;4.15;;;15.90;99.90;;;;;;5072638;28;20239;-69
2022/07/08 01:18:53;;;;;;;20.88;4.88;;;15.90;99.90;;;;;;5054657;28;20282;-70
2022/07/08 01:21:18;;;;;;;15.18;4.20;;;15.90;99.90;;;;;;5073273;28;20651;-69
2022/07/08 01:23:44;;;;;;;14.30;4.03;;;15.90;99.90;;;;;;5072532;28;20556;-69
2022/07/08 01:26:12;;;;;;;18.42;3.97;;;16.00;99.90;;;;;;5072754;28;20206;-69
2022/07/08 01:28:39;;;;;;;20.90;5.22;;;16.00;99.90;;;;;;5072365;28;20822;-69
2022/07/08 01:31:05;;;;;;;15.70;4.43;;;16.00;99.90;;;;;;5072714;28;20290;-69
2022/07/08 01:33:31;;;;;;;16.67;4.72;;;15.90;99.90;;;;;;5072735;28;20275;-69
2022/07/08 01:35:56;;;;;;;16.42;4.65;;;16.00;99.90;;;;;;5055120;28;20195;-69
2022/07/08 01:38:22;;;;;;;17.13;4.93;;;16.00;99.90;;;;;;5072481;28;20209;-69
2022/07/08 01:40:48;;;;;;;13.35;4.78;;;16.00;99.90;;;;;;5072458;28;20650;-69
2022/07/08 01:43:14;;;;;;;17.55;4.53;;;16.10;99.90;;;;;;5054378;28;20290;-69
2022/07/08 01:45:39;;;;;;;14.35;5.05;;;16.10;99.90;;;;;;5072063;28;20191;-68
2022/07/08 01:48:05;;;;;;;13.20;4.15;;;16.10;99.90;;;;;;5072645;28;20183;-69
2022/07/08 01:50:31;;;;;;;16.25;4.72;;;16.00;99.90;;;;;;5049831;22;20263;-70
2022/07/08 01:52:56;;;;;;;15.38;5.10;;;16.10;99.90;;;;;;5033708;28;20571;-70
2022/07/08 01:55:23;;;;;;;17.27;4.70;;;16.10;99.90;;;;;;5035152;28;20204;-70
2022/07/08 01:57:48;;;;;;;19.23;5.38;;;16.10;99.90;;;;;;5033444;28;20204;-70
2022/07/08 02:00:14;;;;;;;24.92;4.70;;;16.10;99.90;;;;;;5018209;28;20311;-69
2022/07/08 02:02:40;;;;;;;16.77;4.97;;;16.20;99.90;;;;;;5012359;28;20209;-70
2022/07/08 02:05:06;;;;;;;16.90;4.60;;;16.10;99.90;;;;;;4994802;28;20845;-70
2022/07/08 02:07:33;;;;;;;15.45;4.30;;;16.10;99.90;;;;;;5016958;28;20219;-70
2022/07/08 02:09:59;;;;;;;16.83;4.30;;;16.10;99.90;;;;;;5012363;28;20220;-70
2022/07/08 02:12:25;;;;;;;17.98;4.95;;;16.10;99.90;;;;;;5012004;28;20177;-70
2022/07/08 02:14:54;;;;;;;15.40;4.50;;;16.10;99.90;;;;;;5012789;28;20248;-70
2022/07/08 02:17:23;;;;;;;22.58;5.82;;;16.00;99.90;;;;;;5012112;28;20217;-70
2022/07/08 02:19:49;;;;;;;15.68;4.82;;;16.00;99.90;;;;;;4986556;28;20219;-70
2022/07/08 02:22:16;;;;;;;16.92;5.13;;;16.00;99.90;;;;;;5001403;28;20291;-70
2022/07/08 02:24:41;;;;;;;15.00;4.88;;;15.90;99.90;;;;;;5025049;28;20191;-70
2022/07/08 02:27:07;;;;;;;17.58;5.35;;;15.90;99.90;;;;;;5052124;28;20195;-70
2022/07/08 02:29:33;;;;;;;25.05;5.22;;;15.90;99.90;;;;;;5023227;28;20592;-69
2022/07/08 02:31:59;;;;;;;18.23;4.68;;;15.90;99.90;;;;;;5028009;28;20216;-70
2022/07/08 02:34:25;;;;;;;19.48;4.43;;;15.90;99.90;;;;;;5038038;28;20700;-70
2022/07/08 02:36:51;;;;;;;19.02;5.45;;;15.90;99.90;;;;;;5025120;28;20211;-70
2022/07/08 02:39:17;;;;;;;14.52;4.40;;;15.90;99.90;;;;;;5025283;28;20218;-70
2022/07/08 02:41:42;;;;;;;17.80;5.13;;;15.90;99.90;;;;;;5039296;28;20206;-70
2022/07/08 02:44:08;;;;;;;18.83;4.90;;;15.90;99.90;;;;;;5038330;28;20748;-69
2022/07/08 02:46:34;;;;;;;16.65;4.40;;;15.90;99.90;;;;;;5041080;28;20243;-69
2022/07/08 02:49:00;;;;;;;16.17;4.45;;;15.90;99.90;;;;;;5042472;28;20231;-69
2022/07/08 02:51:26;;;;;;;13.68;4.30;;;15.90;99.90;;;;;;5041757;28;20180;-70
2022/07/08 02:53:52;;;;;;;15.30;4.78;;;15.90;99.90;;;;;;5039883;28;20238;-70
2022/07/08 02:56:17;;;;;;;15.50;5.35;;;15.90;99.90;;;;;;5039298;28;20212;-71
2022/07/08 02:58:43;;;;;;;17.27;4.95;;;15.90;99.90;;;;;;5043379;28;20278;-69
2022/07/08 03:01:08;;;;;;;15.32;5.10;;;16.00;99.90;;;;;;5038387;28;20230;-70
2022/07/08 03:03:34;;;;;;;12.63;4.45;;;16.00;99.90;;;;;;5045294;28;20180;-69
2022/07/08 03:06:00;;;;;;;16.73;3.88;;;16.00;99.90;;;;;;5040073;28;20821;-70
2022/07/08 03:08:26;;;;;;;16.13;4.13;;;16.10;99.90;;;;;;5039169;28;20685;-71
2022/07/08 03:10:52;;;;;;;15.93;4.28;;;16.10;99.90;;;;;;5041774;28;20459;-71
2022/07/08 03:13:17;;;;;;;18.48;5.72;;;16.10;99.90;;;;;;5025151;28;20625;-70
2022/07/08 03:15:43;;;;;;;19.02;5.05;;;16.10;99.90;;;;;;5039147;28;20242;-70
2022/07/08 03:18:08;;;;;;;15.95;4.90;;;16.20;99.90;;;;;;5021406;28;20653;-70
2022/07/08 03:20:35;;;;;;;18.63;4.68;;;16.20;99.90;;;;;;5040518;28;20866;-69
2022/07/08 03:23:01;;;;;;;16.80;4.78;;;16.20;99.90;;;;;;5042552;28;20199;-69
2022/07/08 03:25:27;;;;;;;8.75;3.38;;;16.10;99.90;;;;;;5023671;28;20592;-70
2022/07/08 03:27:52;;;;;;;12.70;4.60;;;16.10;99.90;;;;;;5020737;28;20685;-70
2022/07/08 03:30:18;;;;;;;17.10;4.32;;;16.10;99.90;;;;;;5039265;28;20224;-70
2022/07/08 03:32:44;;;;;;;16.30;4.60;;;16.10;99.90;;;;;;5042897;28;20294;-70
2022/07/08 03:35:10;;;;;;;18.13;4.25;;;16.10;99.90;;;;;;5042403;28;20203;-70
2022/07/08 03:37:40;;;;;;;17.20;4.63;;;16.10;99.90;;;;;;5039761;28;20249;-69
2022/07/08 03:42:50;;;;;;;17.27;6.07;;;16.20;99.90;;;;;;5030932;28;20314;-70
2022/07/08 03:45:16;;;;;;;16.50;4.60;;;16.20;99.90;;;;;;5039066;28;20269;-70
2022/07/08 03:47:41;;;;;;;15.82;5.25;;;16.20;99.90;;;;;;5039003;28;20227;-69
2022/07/08 03:50:08;;;;;;;15.75;4.05;;;16.30;99.90;;;;;;5020665;28;20586;-70
2022/07/08 03:52:33;;;;;;;11.10;3.95;;;16.20;99.90;;;;;;5039990;28;20213;-70
2022/07/08 03:54:59;;;;;;;15.82;4.13;;;16.20;99.90;;;;;;5042259;28;20200;-69
2022/07/08 03:57:25;;;;;;;18.27;5.15;;;16.30;99.90;;;;;;5038338;28;20173;-70
2022/07/08 03:59:50;;;;;;;11.18;4.00;;;16.40;99.90;;;;;;5042063;28;20202;-70
2022/07/08 04:02:16;;;;;;;19.67;5.65;;;16.70;99.90;;;;;;5040546;28;20229;-69
2022/07/08 04:04:42;;;;;;;15.98;4.40;;;17.50;99.90;;;;;;5023332;28;20206;-70
2022/07/08 04:07:07;;;;;;;13.63;3.47;;;19.50;99.90;;;;;;5041731;28;20639;-69
2022/07/08 04:09:33;;;;;;;15.38;4.50;;;20.90;99.90;;;;;;5039721;28;20234;-67
2022/07/08 04:11:58;;;;;;;11.90;3.67;;;22.00;99.90;;;;;;5038900;28;20227;-69
2022/07/08 04:14:24;;;;;;;13.85;4.38;;;21.50;99.90;;;;;;5042427;28;20208;-70
2022/07/08 04:16:49;;;;;;;12.45;3.78;;;21.10;99.90;;;;;;5045855;28;20207;-70
2022/07/08 04:19:15;;;;;;;15.63;3.85;;;20.00;99.90;;;;;;5045331;28;20650;-70
2022/07/08 04:21:41;;;;;;;13.68;3.78;;;19.20;99.90;;;;;;5042490;28;20625;-70
2022/07/08 04:24:07;;;;;;;13.30;3.85;;;18.70;99.90;;;;;;5042715;28;20181;-70
2022/07/08 04:26:32;;;;;;;13.93;3.45;;;18.20;99.90;;;;;;5025706;28;20329;-69
2022/07/08 04:28:58;;;;;;;11.38;3.40;;;17.90;99.90;;;;;;5045033;28;20229;-69
2022/07/08 04:31:25;;;;;;;11.23;3.55;;;18.20;99.90;;;;;;5044871;28;20692;-70
2022/07/08 04:33:50;;;;;;;15.75;3.90;;;18.20;99.90;;;;;;5043111;28;20231;-69
2022/07/08 04:36:16;;;;;;;12.60;3.78;;;18.00;99.90;;;;;;5042209;28;20168;-70
2022/07/08 04:38:41;;;;;;;11.65;3.63;;;17.60;99.90;;;;;;5044018;28;20202;-70
2022/07/08 04:41:07;;;;;;;12.65;4.10;;;17.30;99.90;;;;;;5043663;28;20700;-70
2022/07/08 04:43:33;;;;;;;10.65;3.30;;;17.10;99.90;;;;;;5032665;28;20230;-68
2022/07/08 04:45:58;;;;;;;8.63;3.50;;;16.90;99.90;;;;;;5033561;28;20208;-69
2022/07/08 04:48:24;;;;;;;10.18;3.42;;;16.80;99.90;;;;;;5033179;28;20184;-69
2022/07/08 04:50:50;;;;;;;12.20;4.10;;;16.80;99.90;;;;;;5015930;28;20236;-70
2022/07/08 04:53:15;;;;;;;25.08;6.13;;;16.70;99.90;;;;;;5033499;28;20682;-70
2022/07/08 04:55:41;;;;;;;10.57;3.53;;;16.70;99.90;;;;;;5033330;28;20207;-69
2022/07/08 04:58:06;;;;;;;11.00;3.75;;;16.70;99.90;;;;;;5039481;28;20222;-69
2022/07/08 05:00:33;;;;;;;15.90;4.65;;;16.60;99.90;;;;;;5052910;28;20235;-69
2022/07/08 05:02:59;;;;;;;15.75;3.88;;;16.60;99.90;;;;;;5053583;28;20196;-69
2022/07/08 05:05:26;;;;;;;9.50;3.88;;;16.60;99.90;;;;;;5052972;28;20320;-69
2022/07/08 05:07:51;;;;;;;14.23;3.97;;;16.60;99.90;;;;;;5052781;28;20679;-70
2022/07/08 05:10:20;;;;;;;11.70;3.70;;;16.60;99.90;;;;;;5052952;28;20211;-69
2022/07/08 05:12:46;;;;;;;16.02;4.50;;;16.60;99.90;;;;;;5040113;28;20208;-70
2022/07/08 05:15:12;;;;;;;10.55;3.45;;;16.60;99.90;;;;;;5033727;28;20203;-69
2022/07/08 05:17:38;;;;;;;10.88;3.80;;;16.50;99.90;;;;;;5032900;28;20258;-70
2022/07/08 05:20:07;;;;;;;9.07;3.75;;;16.60;99.90;;;;;;5032328;28;20569;-70
2022/07/08 05:22:32;;;;;;;11.50;3.63;;;16.50;99.90;;;;;;5032714;28;20600;-68
2022/07/08 05:24:58;;;;;;;15.65;4.20;;;16.50;99.90;;;;;;5032217;28;20216;-69
2022/07/08 05:27:24;;;;;;;12.52;3.33;;;16.50;99.90;;;;;;5032720;28;20168;-70
2022/07/08 05:29:49;;;;;;;14.05;3.60;;;16.40;99.90;;;;;;5032810;28;20803;-70
2022/07/08 05:32:15;;;;;;;11.43;4.07;;;16.50;99.90;;;;;;5032761;28;20208;-70
2022/07/08 05:34:44;;;;;;;8.30;3.17;;;16.30;99.90;;;;;;5014463;28;20212;-69
2022/07/08 05:37:11;;;;;;;7.45;3.03;;;16.20;99.90;;;;;;5032869;28;20706;-70
2022/07/08 05:39:37;;;;;;;9.27;3.33;;;16.20;99.90;;;;;;5014127;28;20209;-69
2022/07/08 05:42:03;;;;;;;10.32;3.55;;;16.30;99.90;;;;;;5033321;28;20168;-70
2022/07/08 05:44:29;;;;;;;7.50;2.88;;;16.40;99.90;;;;;;5032440;28;20707;-69
2022/07/08 05:46:54;;;;;;;14.48;3.15;;;16.40;99.90;;;;;;5032652;28;20207;-70
2022/07/08 05:49:20;;;;;;;9.00;3.13;;;16.50;99.90;;;;;;5031940;28;20240;-69
2022/07/08 05:51:45;;;;;;;15.90;3.45;;;16.60;99.90;;;;;;5032397;28;20200;-70
2022/07/08 05:54:11;;;;;;;12.55;3.55;;;16.60;99.90;;;;;;5033076;28;20665;-69
2022/07/08 05:56:37;;;;;;;9.68;2.95;;;16.60;99.90;;;;;;5032311;28;20208;-69
2022/07/08 05:59:02;;;;;;;13.00;3.35;;;16.70;99.90;;;;;;5028183;28;20212;-70
2022/07/08 06:01:28;;;;;;;8.60;2.45;;;16.90;99.90;;;;;;5051918;28;20627;-70
2022/07/08 06:03:53;;;;;;;8.45;3.22;;;16.80;99.90;;;;;;5052030;28;20257;-70
2022/07/08 06:06:19;;;;;;;12.35;3.05;;;16.90;99.90;;;;;;5052722;28;20271;-69
2022/07/08 06:08:44;;;;;;;11.40;3.47;;;16.90;99.90;;;;;;5051433;28;20214;-69
2022/07/08 06:11:10;;;;;;;12.98;3.92;;;17.00;99.90;;;;;;5052005;28;20204;-70
2022/07/08 06:13:35;;;;;;;12.35;3.70;;;16.90;99.90;;;;;;5032170;28;20208;-69
2022/07/08 06:16:01;;;;;;;11.43;3.60;;;16.90;99.90;;;;;;5031817;28;20596;-70
2022/07/08 06:18:26;;;;;;;17.25;3.83;;;16.90;99.90;;;;;;5030956;28;20822;-70
2022/07/08 06:20:52;;;;;;;11.18;3.55;;;16.90;99.90;;;;;;5014559;28;20208;-69
2022/07/08 06:23:18;;;;;;;10.68;3.40;;;16.90;99.90;;;;;;5032123;28;20228;-69
2022/07/08 06:25:43;;;;;;;18.42;4.00;;;16.70;99.90;;;;;;5031885;28;20206;-69
2022/07/08 06:28:09;;;;;;;18.40;7.82;;;16.70;99.90;;;;;;5031396;28;20207;-70
2022/07/08 06:30:34;;;;;;;14.38;5.55;;;16.70;99.90;;;;;;5031685;28;20248;-69
2022/07/08 06:33:00;;;;;;;12.48;5.15;;;16.60;99.90;;;;;;5032320;28;20176;-70
2022/07/08 06:35:27;;;;;;;11.68;3.83;;;16.70;99.90;;;;;;5031234;28;20838;-70
2022/07/08 06:37:53;;;;;;;14.32;3.78;;;16.80;99.90;;;;;;5030804;28;20287;-70
2022/07/08 06:40:21;;;;;;;12.25;4.25;;;16.70;99.90;;;;;;5031290;28;20212;-70
2022/07/08 06:42:50;;;;;;;13.85;3.78;;;16.70;99.90;;;;;;5031757;28;20216;-70
2022/07/08 06:45:15;;;;;;;13.13;5.10;;;16.60;99.90;;;;;;5031796;28;20189;-70
2022/07/08 06:47:42;;;;;;;13.38;4.68;;;16.50;99.90;;;;;;5031155;28;20270;-70
2022/07/08 06:50:08;;;;;;;14.43;4.15;;;16.50;99.90;;;;;;5013191;28;20216;-70
2022/07/08 06:52:34;;;;;;;10.95;3.85;;;16.60;99.90;;;;;;5031019;28;20211;-69
2022/07/08 06:55:00;;;;;;;12.80;4.13;;;16.60;99.90;;;;;;5036893;28;20581;-70
2022/07/08 06:57:26;;;;;;;15.35;3.72;;;16.60;99.90;;;;;;5029161;28;20172;-70
2022/07/08 06:59:51;;;;;;;15.98;4.30;;;16.60;99.90;;;;;;5031216;28;20206;-69
2022/07/08 07:02:17;;;;;;;11.60;4.05;;;16.60;99.90;;;;;;5031117;28;20593;-69
2022/07/08 07:04:43;;;;;;;14.65;4.88;;;16.50;99.90;;;;;;5030836;28;20196;-70
2022/07/08 07:07:09;;;;;;;13.38;3.83;;;16.50;99.90;;;;;;5030883;28;20291;-69
2022/07/08 07:09:35;;;;;;;11.77;3.47;;;16.60;99.90;;;;;;5030242;28;20200;-69
2022/07/08 07:12:01;;;;;;;15.43;3.63;;;16.70;99.90;;;;;;5031960;28;20252;-70
2022/07/08 07:14:27;;;;;;;12.30;3.40;;;16.60;99.90;;;;;;5030790;28;20208;-70
2022/07/08 07:16:52;;;;;;;12.10;3.60;;;16.70;99.90;;;;;;5030993;28;20215;-70
2022/07/08 07:19:18;;;;;;;11.88;3.42;;;16.80;99.90;;;;;;5030354;28;20212;-69
2022/07/08 07:21:44;;;;;;;13.27;3.90;;;16.90;99.90;;;;;;5030776;28;20278;-70
2022/07/08 07:24:09;;;;;;;13.60;3.28;;;17.00;99.90;;;;;;5031604;28;20182;-70
2022/07/08 07:26:36;;;;;;;10.48;3.10;;;17.00;99.90;;;;;;5030672;28;20262;-69
2022/07/08 07:29:03;;;;;;;13.13;2.88;;;17.00;99.90;;;;;;5030578;28;20235;-70
2022/07/08 07:31:28;;;;;;;9.57;3.50;;;17.00;99.90;;;;;;5030657;28;20220;-69
2022/07/08 07:33:54;;;;;;;12.15;3.35;;;16.90;99.90;;;;;;5030902;28;20565;-69
2022/07/08 07:36:20;;;;;;;11.05;2.90;;;16.70;99.90;;;;;;5031279;28;20179;-69
2022/07/08 07:38:45;;;;;;;12.32;3.30;;;16.80;99.90;;;;;;5030298;28;20226;-69
2022/07/08 07:41:11;;;;;;;14.68;3.10;;;16.80;99.90;;;;;;5030393;28;20250;-70
2022/07/08 07:43:36;;;;;;;11.55;3.00;;;16.90;99.90;;;;;;5013100;28;20592;-70
2022/07/08 07:46:02;;;;;;;12.18;3.25;;;17.00;99.90;;;;;;5030586;28;20222;-70
2022/07/08 07:48:28;;;;;;;9.63;2.85;;;17.10;99.90;;;;;;5032204;28;20176;-70
2022/07/08 07:50:53;;;;;;;11.07;3.13;;;17.20;99.90;;;;;;5036121;28;20735;-70
2022/07/08 07:53:19;;;;;;;13.38;3.88;;;17.40;99.90;;;;;;5034846;28;20200;-70
2022/07/08 07:55:45;;;;;;;14.20;3.78;;;17.50;99.90;;;;;;5016506;28;20569;-70
2022/07/08 07:58:10;;;;;;;14.00;5.72;;;17.50;99.90;;;;;;5041403;28;20200;-69
2022/07/08 08:00:36;;;;;;;14.98;3.90;;;17.60;99.90;;;;;;5036261;28;20203;-69
2022/07/08 08:03:02;;;;;;;13.93;3.22;;;17.70;99.90;;;;;;5055016;28;20207;-70
2022/07/08 08:05:28;;;;;;;8.75;3.05;;;17.70;99.90;;;;;;5054256;28;20298;-70
2022/07/08 08:07:53;;;;;;;13.70;3.80;;;17.80;99.90;;;;;;5054349;28;20580;-70
2022/07/08 08:10:19;;;;;;;10.05;2.70;;;17.80;99.90;;;;;;5054180;28;20717;-69
2022/07/08 08:12:44;;;;;;;11.07;2.72;;;17.80;99.90;;;;;;5023619;28;20207;-70
2022/07/08 08:15:10;;;;;;;8.95;3.20;;;17.80;99.90;;;;;;5034824;28;20649;-72
2022/07/08 08:17:42;;;;;;;12.98;2.97;;;18.00;99.90;;;;;;5033770;28;20214;-78
2022/07/08 08:20:11;;;;;;;11.27;3.38;;;18.10;99.90;;;;;;5032376;28;20299;-74
2022/07/08 08:22:37;;;;;;;12.77;3.13;;;18.40;99.90;;;;;;5046159;28;20298;-73
2022/07/08 08:25:03;;;;;;;12.00;2.63;;;18.60;99.90;;;;;;5038101;28;20239;-76
2022/07/08 08:27:29;;;;;;;6.60;2.63;;;18.60;99.90;;;;;;5024644;28;20181;-73
2022/07/08 08:29:55;;;;;;;9.32;2.30;;;18.80;99.90;;;;;;5038040;28;20201;-77
2022/07/08 08:32:20;;;;;;;9.13;3.03;;;18.90;99.90;;;;;;5044670;28;20204;-77
2022/07/08 08:34:46;;;;;;;9.88;2.58;;;18.90;99.90;;;;;;5037596;28;20212;-75
2022/07/08 08:37:13;;;;;;;9.57;3.08;;;19.00;99.90;;;;;;5044939;28;20208;-72
2022/07/08 08:39:39;;;;;;;9.32;3.80;;;19.10;99.90;;;;;;5053005;28;20226;-75
2022/07/08 08:42:06;;;;;;;8.85;2.15;;;18.90;99.90;;;;;;5047016;28;20199;-73
2022/07/08 08:44:32;;;;;;;11.73;3.63;;;18.60;99.90;;;;;;5016345;28;20205;-75
2022/07/08 08:47:00;;;;;;;10.13;2.50;;;18.70;99.90;;;;;;5033771;28;20204;-73
2022/07/08 08:49:29;;;;;;;7.57;2.22;;;18.80;99.90;;;;;;5033201;28;20315;-73
2022/07/08 08:51:55;;;;;;;10.20;2.80;;;19.10;99.90;;;;;;5051835;28;20265;-74
2022/07/08 08:54:23;;;;;;;6.50;2.03;;;19.30;99.90;;;;;;5042079;28;20215;-75
2022/07/08 08:56:53;;;;;;;8.60;2.28;;;19.20;99.90;;;;;;5033867;28;20250;-75
2022/07/08 08:59:18;;;;;;;9.68;3.17;;;19.00;99.90;;;;;;5044618;28;20222;-72
2022/07/08 09:01:45;;;;;;;7.97;2.97;;;18.80;99.90;;;;;;5033812;28;20280;-71
2022/07/08 09:04:11;;;;;;;9.65;2.47;;;18.80;99.90;;;;;;5033513;28;20635;-73
2022/07/08 09:06:40;;;;;;;7.47;2.13;;;18.80;99.90;;;;;;5033643;28;20180;-75
2022/07/08 09:09:06;;;;;;;6.88;2.20;;;18.50;99.90;;;;;;5048293;28;20199;-74
2022/07/08 09:11:33;;;;;;;11.73;2.40;;;18.20;99.90;;;;;;5050005;28;20234;-73
2022/07/08 09:14:19;;;;;;;9.48;2.13;;;18.00;99.90;;;;;;5033024;28;20200;-73
2022/07/08 09:17:12;;;;;;;10.25;2.63;;;17.90;99.90;;;;;;5014901;28;20211;-72
2022/07/08 09:19:42;;;;;;;9.25;2.30;;;17.90;99.90;;;;;;5036824;28;20219;-71
2022/07/08 09:22:08;;;;;;;6.80;2.08;;;17.80;99.90;;;;;;5049476;28;20551;-71
2022/07/08 09:24:35;;;;;;;8.65;2.00;;;17.90;99.90;;;;;;5052637;28;20651;-71
2022/07/08 09:27:11;;;;;;;11.60;2.53;;;18.00;99.90;;;;;;5048418;28;20169;-71
2022/07/08 09:29:55;;;;;;;7.13;2.05;;;18.30;99.90;;;;;;5014558;28;20215;-76
2022/07/08 09:32:21;;;;;;;7.53;2.72;;;18.30;99.90;;;;;;5030934;28;20751;-73
2022/07/08 09:34:46;;;;;;;10.80;3.25;;;18.20;99.90;;;;;;5032996;28;20291;-70
2022/07/08 09:37:17;;;;;;;6.93;2.47;;;18.20;99.90;;;;;;5032548;28;20628;-73
2022/07/08 09:39:46;;;;;;;5.90;2.05;;;18.20;99.90;;;;;;5051581;28;20219;-75
2022/07/08 09:42:14;;;;;;;6.15;2.15;;;18.10;99.90;;;;;;5026339;28;20771;-75
2022/07/08 09:44:40;;;;;;;9.93;2.85;;;18.00;99.90;;;;;;5032281;28;20238;-73
2022/07/08 09:47:15;;;;;;;9.50;2.72;;;17.90;99.90;;;;;;5032428;28;20216;-72
2022/07/08 09:49:46;;;;;;;6.95;3.35;;;17.90;99.90;;;;;;5014161;28;20230;-72
2022/07/08 09:52:20;;;;;;;10.25;2.55;;;17.80;99.90;;;;;;5015010;28;20731;-73
2022/07/08 09:54:45;;;;;;;8.88;2.67;;;17.90;99.90;;;;;;5014666;28;20299;-70
2022/07/08 09:57:13;;;;;;;13.50;2.50;;;18.00;99.90;;;;;;5039532;28;20204;-70
2022/07/08 09:59:39;;;;;;;9.10;2.03;;;18.00;99.90;;;;;;5051210;28;20320;-70
2022/07/08 10:02:05;;;;;;;8.98;2.55;;;18.10;99.90;;;;;;5052096;28;20288;-72
2022/07/08 10:04:31;;;;;;;7.30;2.28;;;18.40;99.90;;;;;;5051887;28;20396;-75
2022/07/08 10:06:58;;;;;;;7.32;2.55;;;18.70;99.90;;;;;;5033877;28;20620;-75
2022/07/08 10:09:25;;;;;;;7.70;2.42;;;19.20;99.90;;;;;;5052041;28;20211;-75
2022/07/08 10:11:52;;;;;;;9.90;2.67;;;19.40;99.90;;;;;;5033092;28;20200;-71
2022/07/08 10:14:18;;;;;;;7.72;2.13;;;19.60;99.90;;;;;;5031785;28;20230;-74
2022/07/08 10:16:47;;;;;;;10.00;2.78;;;19.50;99.90;;;;;;5031741;28;20211;-70
2022/07/08 10:19:21;;;;;;;9.55;2.63;;;19.40;99.90;;;;;;5029596;28;20260;-71
2022/07/08 10:21:51;;;;;;;6.70;2.20;;;19.70;99.90;;;;;;5033984;28;20681;-70
2022/07/08 10:24:22;;;;;;;7.20;2.45;;;20.20;99.90;;;;;;5045549;28;20195;-70
2022/07/08 10:26:48;;;;;;;7.68;2.47;;;20.10;99.90;;;;;;5026474;28;20518;-71
2022/07/08 10:29:14;;;;;;;6.65;2.17;;;20.40;99.90;;;;;;5029145;28;20228;-71
2022/07/08 10:31:51;;;;;;;5.85;2.13;;;20.80;99.90;;;;;;5029230;28;20220;-70
2022/07/08 10:34:22;;;;;;;6.57;2.13;;;20.80;99.90;;;;;;5012076;28;20577;-70
2022/07/08 10:36:50;;;;;;;7.45;2.20;;;20.60;99.90;;;;;;5041601;28;20207;-70
2022/07/08 10:39:41;;;;;;;11.68;2.47;;;21.00;99.90;;;;;;5033326;28;20196;-70
2022/07/08 10:42:08;;;;;;;7.40;1.90;;;21.10;99.90;;;;;;5044228;28;20291;-72
2022/07/08 10:44:54;;;;;;;7.40;2.25;;;21.00;99.90;;;;;;5031285;28;20213;-69
2022/07/08 10:47:28;;;;;;;5.68;2.20;;;21.20;99.90;;;;;;5031447;28;20196;-69
2022/07/08 10:50:06;;;;;;;12.38;2.97;;;21.20;99.90;;;;;;5012906;28;20220;-71
2022/07/08 10:52:38;;;;;;;7.78;2.05;;;20.90;99.90;;;;;;5032537;28;20262;-72
2022/07/08 10:55:11;;;;;;;10.52;2.38;;;21.10;99.90;;;;;;5051114;28;20207;-71
2022/07/08 10:57:36;;;;;;;7.57;1.75;;;21.10;99.90;;;;;;5050776;28;20207;-69
2022/07/08 11:00:13;;;;;;;9.00;1.95;;;21.50;99.90;;;;;;5050973;28;20207;-72
2022/07/08 11:02:45;;;;;;;6.65;1.85;;;21.80;99.90;;;;;;5050955;28;20291;-70
2022/07/08 11:05:40;;;;;;;5.65;2.08;;;22.20;99.90;;;;;;5050857;28;20199;-70
2022/07/08 11:08:21;;;;;;;4.53;1.60;;;22.40;99.90;;;;;;5050795;28;20195;-70
2022/07/08 11:10:51;;;;;;;7.45;1.58;;;22.20;99.90;;;;;;5050816;28;20226;-71
2022/07/08 11:13:19;;;;;;;5.57;1.52;;;22.30;99.90;;;;;;5033535;28;20208;-72
2022/07/08 11:15:44;;;;;;;5.75;1.52;;;22.00;99.90;;;;;;5030895;28;20231;-70
2022/07/08 11:18:10;;;;;;;9.15;1.70;;;22.10;99.90;;;;;;5029949;28;20208;-70
2022/07/08 11:20:36;;;;;;;5.85;1.48;;;22.10;99.90;;;;;;5030493;28;20216;-70
2022/07/08 11:23:05;;;;;;;4.55;1.98;;;22.40;99.90;;;;;;5030086;28;20254;-72
2022/07/08 11:25:31;;;;;;;4.95;1.90;;;22.50;99.90;;;;;;5030421;28;20640;-70
2022/07/08 11:27:57;;;;;;;8.45;1.80;;;22.20;99.90;;;;;;5012791;28;20204;-70
2022/07/08 11:30:23;;;;;;;8.70;2.40;;;21.90;99.90;;;;;;5028918;28;20204;-70
2022/07/08 11:32:49;;;;;;;7.95;2.17;;;22.00;99.90;;;;;;5031025;28;20199;-70
2022/07/08 11:35:17;;;;;;;7.70;1.95;;;22.30;99.90;;;;;;5030360;28;20208;-70
2022/07/08 11:37:43;;;;;;;10.23;3.53;;;22.10;99.90;;;;;;5030409;28;20223;-70
2022/07/08 11:40:10;;;;;;;7.75;1.80;;;22.10;99.90;;;;;;5030446;28;20729;-70
2022/07/08 11:42:37;;;;;;;8.55;3.63;;;22.00;99.90;;;;;;5029262;28;20180;-71
2022/07/08 11:45:05;;;;;;;4.68;2.05;;;21.80;99.90;;;;;;5030285;28;20178;-74
2022/07/08 11:47:30;;;;;;;5.55;1.85;;;21.70;99.90;;;;;;5029368;28;20207;-74
2022/07/08 11:49:56;;;;;;;5.47;2.22;;;21.50;99.90;;;;;;5028892;28;20704;-73
2022/07/08 11:52:22;;;;;;;13.15;2.25;;;21.70;99.90;;;;;;5011726;28;20220;-72
2022/07/08 11:54:48;;;;;;;8.75;1.90;;;22.00;99.90;;;;;;5030441;28;20295;-73
2022/07/08 11:57:15;;;;;;;4.85;1.80;;;22.20;99.90;;;;;;5013402;28;20172;-72
2022/07/08 11:59:46;;;;;;;6.65;1.52;;;22.30;99.90;;;;;;5048732;28;20219;-72
2022/07/08 12:02:14;;;;;;;5.88;1.45;;;22.40;99.90;;;;;;5032319;28;20655;-75
2022/07/08 12:04:45;;;;;;;4.72;1.65;;;22.00;99.90;;;;;;5049737;28;20219;-72
2022/07/08 12:07:21;;;;;;;4.82;1.58;;;21.90;99.90;;;;;;5050178;28;20207;-73
2022/07/08 12:09:54;;;;;;;5.70;1.65;;;21.50;99.90;;;;;;5049348;28;20681;-74
2022/07/08 12:12:24;;;;;;;3.58;1.50;;;21.60;99.90;;;;;;5040827;28;20207;-74
2022/07/08 12:14:50;;;;;;;5.72;2.47;;;21.60;99.90;;;;;;5030695;28;20254;-74
2022/07/08 12:17:26;;;;;;;6.18;1.58;;;21.70;99.90;;;;;;5030145;28;20290;-75
2022/07/08 12:19:53;;;;;;;5.20;1.63;;;21.60;99.90;;;;;;5029817;28;20291;-74
2022/07/08 12:22:45;;;;;;;6.45;2.75;;;21.40;99.90;;;;;;5030529;28;20227;-75
2022/07/08 12:25:15;;;;;;;8.23;2.22;;;21.20;99.90;;;;;;5030074;28;20200;-74
2022/07/08 12:27:41;;;;;;;6.03;2.28;;;21.10;99.90;;;;;;5029614;28;20201;-73
2022/07/08 12:30:08;;;;;;;5.07;2.13;;;21.10;99.90;;;;;;5045237;28;20345;-74
2022/07/08 12:32:42;;;;;;;6.72;2.53;;;21.20;99.90;;;;;;5049763;28;20207;-73
2022/07/08 12:35:09;;;;;;;4.28;1.70;;;21.40;99.90;;;;;;5053179;28;20207;-74
2022/07/08 12:37:35;;;;;;;12.70;1.88;;;21.50;99.90;;;;;;5053320;28;20651;-74
2022/07/08 12:40:20;;;;;;;5.55;2.33;;;21.60;99.90;;;;;;5053060;28;20221;-75
2022/07/08 12:43:02;;;;;;;4.95;2.10;;;21.60;99.90;;;;;;5040340;28;20291;-74